Leesburg, VA (20175)

7:14 AM EDT on July 07, 2015 (GMT -0400)
Emerald Park Estates | | Change Station
CLOSE
Current Station
Personal Weather Station
Location: Leesburg, VA
Elevation: 424 ft
Nearby Weather Stations

Elev 424 ft 39.08 °N, 77.59 °W | Updated 19 seconds ago

Overcast
Overcast
70.5 °F
Feels Like 70.5 °F
N
1.0
Wind Variable Wind from WSW
Gusts 3.0 mph

Today
High -- | Low -- °F
--% Chance of Precip.
Yesterday
High -- | Low -- °F
Precip. -- in
5:51 AM 8:39 PM
Waning Gibbous, 66% visible
Pressure 30.07 in
Visibility 4.0 miles
Clouds Overcast 300 ft
Dew Point 70 °F
Humidity 99%
Rainfall 0.00 in
Snow Depth Not available.
UV 0 out of 12
Pollen .60 out of 12
Air Quality Not available.
Flu Activity Not available.
METAR KJYO 071055Z AUTO 25003KT 4SM BR OVC003 22/22 A3007 RMK AO2

More Conditions Fewer Conditions

Pressure 30.07 in
Visibility 4.0 miles
Clouds Overcast 300 ft
Dew Point 70 °F
Humidity 99%
Rainfall 0.00 in
Snow Depth Not available.
UV 0 out of 12
Pollen .60 out of 12
Air Quality Not available.
Flu Activity Not available.
METAR KJYO 071055Z AUTO 25003KT 4SM BR OVC003 22/22 A3007 RMK AO2

More Conditions Fewer Conditions

10-Day Weather Forecast

×

Almanac

Astronomy

Jul. 07, 2015 Rise Set
Actual Time
Civil Twilight
Nautical Twilight
Astronomical Twilight
Moon
Length of Visible Light
Length of Day
Tomorrow will be .
, % of the Moon is Illuminated

Today's Extremes

State Highs State Lows

Community

WunderPhotos

Upload Photos

1,835,767 photos uploaded!

WunderBlogs® & News

Nearby

Air Quality

  Air Quality AQ Index Pollutant
Not available.

Snow Depth

Station Depth Elevation

Earthquake Activity

City Distance Mag. Time & Date
Minimum magnitude displayed is 2.5.

Coastal Water Temperatures

Place Temperature

Stations

Nearby Weather Stations

Station Location Temp. Windchill Dew Point Humidity Wind Precip. Elev Updated Type